sensor_id;sensor_type;location;lat;lon;timestamp;P1;durP1;ratioP1;P2;durP2;ratioP2
9783;SDS011;4931;44.874;-1.092;2023-04-24T00:00:53;17.38;;;2.72;;
9783;SDS011;4931;44.874;-1.092;2023-04-24T00:03:22;16.23;;;2.80;;
9783;SDS011;4931;44.874;-1.092;2023-04-24T00:05:48;17.05;;;3.28;;
9783;SDS011;4931;44.874;-1.092;2023-04-24T00:08:13;11.43;;;2.55;;
9783;SDS011;4931;44.874;-1.092;2023-04-24T00:10:39;13.18;;;2.90;;
9783;SDS011;4931;44.874;-1.092;2023-04-24T00:13:04;10.07;;;2.88;;
9783;SDS011;4931;44.874;-1.092;2023-04-24T00:15:30;12.82;;;3.05;;
9783;SDS011;4931;44.874;-1.092;2023-04-24T00:17:56;12.85;;;3.20;;
9783;SDS011;4931;44.874;-1.092;2023-04-24T00:20:22;19.02;;;3.67;;
9783;SDS011;4931;44.874;-1.092;2023-04-24T00:22:47;14.10;;;3.00;;
9783;SDS011;4931;44.874;-1.092;2023-04-24T00:25:13;19.40;;;3.25;;
9783;SDS011;4931;44.874;-1.092;2023-04-24T00:27:38;16.88;;;3.20;;
9783;SDS011;4931;44.874;-1.092;2023-04-24T00:30:04;15.93;;;3.53;;
9783;SDS011;4931;44.874;-1.092;2023-04-24T00:32:30;12.93;;;3.50;;
9783;SDS011;4931;44.874;-1.092;2023-04-24T00:34:56;16.48;;;3.22;;
9783;SDS011;4931;44.874;-1.092;2023-04-24T00:37:21;14.65;;;3.20;;
9783;SDS011;4931;44.874;-1.092;2023-04-24T00:39:46;12.18;;;3.08;;
9783;SDS011;4931;44.874;-1.092;2023-04-24T00:42:12;11.07;;;3.63;;
9783;SDS011;4931;44.874;-1.092;2023-04-24T00:44:37;13.77;;;3.60;;
9783;SDS011;4931;44.874;-1.092;2023-04-24T00:47:03;16.33;;;3.72;;
9783;SDS011;4931;44.874;-1.092;2023-04-24T00:49:29;16.02;;;3.88;;
9783;SDS011;4931;44.874;-1.092;2023-04-24T00:51:55;12.38;;;3.63;;
9783;SDS011;4931;44.874;-1.092;2023-04-24T00:54:21;14.52;;;4.15;;
9783;SDS011;4931;44.874;-1.092;2023-04-24T00:56:47;15.32;;;4.07;;
9783;SDS011;4931;44.874;-1.092;2023-04-24T00:59:13;14.07;;;3.80;;
9783;SDS011;4931;44.874;-1.092;2023-04-24T01:01:41;11.20;;;4.40;;
9783;SDS011;4931;44.874;-1.092;2023-04-24T01:04:09;15.48;;;4.20;;
9783;SDS011;4931;44.874;-1.092;2023-04-24T01:06:36;14.15;;;4.72;;
9783;SDS011;4931;44.874;-1.092;2023-04-24T01:09:04;13.18;;;4.43;;
9783;SDS011;4931;44.874;-1.092;2023-04-24T01:11:30;13.15;;;4.38;;
9783;SDS011;4931;44.874;-1.092;2023-04-24T01:13:56;18.10;;;4.45;;
9783;SDS011;4931;44.874;-1.092;2023-04-24T01:16:21;16.50;;;5.80;;
9783;SDS011;4931;44.874;-1.092;2023-04-24T01:18:47;10.93;;;5.13;;
9783;SDS011;4931;44.874;-1.092;2023-04-24T01:21:14;21.63;;;5.00;;
9783;SDS011;4931;44.874;-1.092;2023-04-24T01:23:42;15.65;;;5.68;;
9783;SDS011;4931;44.874;-1.092;2023-04-24T01:26:08;17.42;;;5.93;;
9783;SDS011;4931;44.874;-1.092;2023-04-24T01:28:34;16.42;;;5.53;;
9783;SDS011;4931;44.874;-1.092;2023-04-24T01:30:59;18.33;;;5.75;;
9783;SDS011;4931;44.874;-1.092;2023-04-24T01:33:25;10.38;;;5.40;;
9783;SDS011;4931;44.874;-1.092;2023-04-24T01:35:51;14.73;;;6.20;;
9783;SDS011;4931;44.874;-1.092;2023-04-24T01:38:16;15.63;;;6.00;;
9783;SDS011;4931;44.874;-1.092;2023-04-24T01:40:42;17.85;;;6.10;;
9783;SDS011;4931;44.874;-1.092;2023-04-24T01:43:08;12.10;;;5.35;;
9783;SDS011;4931;44.874;-1.092;2023-04-24T01:45:33;13.30;;;5.60;;
9783;SDS011;4931;44.874;-1.092;2023-04-24T01:47:59;11.43;;;5.70;;
9783;SDS011;4931;44.874;-1.092;2023-04-24T01:50:25;14.65;;;5.88;;
9783;SDS011;4931;44.874;-1.092;2023-04-24T01:52:50;16.83;;;5.97;;
9783;SDS011;4931;44.874;-1.092;2023-04-24T01:55:16;13.55;;;5.70;;
9783;SDS011;4931;44.874;-1.092;2023-04-24T01:57:41;14.90;;;5.90;;
9783;SDS011;4931;44.874;-1.092;2023-04-24T02:00:08;16.23;;;5.80;;
9783;SDS011;4931;44.874;-1.092;2023-04-24T02:02:36;14.40;;;5.78;;
9783;SDS011;4931;44.874;-1.092;2023-04-24T02:05:02;15.40;;;6.10;;
9783;SDS011;4931;44.874;-1.092;2023-04-24T02:07:28;17.00;;;6.72;;
9783;SDS011;4931;44.874;-1.092;2023-04-24T02:09:53;17.83;;;6.18;;
9783;SDS011;4931;44.874;-1.092;2023-04-24T02:12:20;14.07;;;6.45;;
9783;SDS011;4931;44.874;-1.092;2023-04-24T02:14:45;17.33;;;6.25;;
9783;SDS011;4931;44.874;-1.092;2023-04-24T02:17:11;13.82;;;6.25;;
9783;SDS011;4931;44.874;-1.092;2023-04-24T02:19:38;19.10;;;6.82;;
9783;SDS011;4931;44.874;-1.092;2023-04-24T02:22:04;16.33;;;6.78;;
9783;SDS011;4931;44.874;-1.092;2023-04-24T02:24:29;17.90;;;6.75;;
9783;SDS011;4931;44.874;-1.092;2023-04-24T02:26:55;14.65;;;6.70;;
9783;SDS011;4931;44.874;-1.092;2023-04-24T02:29:20;13.82;;;6.20;;
9783;SDS011;4931;44.874;-1.092;2023-04-24T02:31:46;12.93;;;6.40;;
9783;SDS011;4931;44.874;-1.092;2023-04-24T02:34:11;13.32;;;6.07;;
9783;SDS011;4931;44.874;-1.092;2023-04-24T02:36:37;12.27;;;6.22;;
9783;SDS011;4931;44.874;-1.092;2023-04-24T02:39:02;12.73;;;6.65;;
9783;SDS011;4931;44.874;-1.092;2023-04-24T02:41:29;11.90;;;6.18;;
9783;SDS011;4931;44.874;-1.092;2023-04-24T02:43:57;16.50;;;6.70;;
9783;SDS011;4931;44.874;-1.092;2023-04-24T02:46:23;13.07;;;6.82;;
9783;SDS011;4931;44.874;-1.092;2023-04-24T02:48:49;12.88;;;6.53;;
9783;SDS011;4931;44.874;-1.092;2023-04-24T02:51:14;16.63;;;7.07;;
9783;SDS011;4931;44.874;-1.092;2023-04-24T02:53:39;15.77;;;6.25;;
9783;SDS011;4931;44.874;-1.092;2023-04-24T02:56:05;19.30;;;6.53;;
9783;SDS011;4931;44.874;-1.092;2023-04-24T02:58:31;10.40;;;6.20;;
9783;SDS011;4931;44.874;-1.092;2023-04-24T03:00:56;13.48;;;6.85;;
9783;SDS011;4931;44.874;-1.092;2023-04-24T03:03:22;10.60;;;6.50;;
9783;SDS011;4931;44.874;-1.092;2023-04-24T03:05:48;15.95;;;6.28;;
9783;SDS011;4931;44.874;-1.092;2023-04-24T03:08:14;15.52;;;7.10;;
9783;SDS011;4931;44.874;-1.092;2023-04-24T03:10:39;12.25;;;6.85;;
9783;SDS011;4931;44.874;-1.092;2023-04-24T03:13:05;15.18;;;6.93;;
9783;SDS011;4931;44.874;-1.092;2023-04-24T03:15:30;14.80;;;6.88;;
9783;SDS011;4931;44.874;-1.092;2023-04-24T03:17:56;17.35;;;7.38;;
9783;SDS011;4931;44.874;-1.092;2023-04-24T03:20:21;13.73;;;7.00;;
9783;SDS011;4931;44.874;-1.092;2023-04-24T03:22:47;12.77;;;6.80;;
9783;SDS011;4931;44.874;-1.092;2023-04-24T03:25:12;15.15;;;6.75;;
9783;SDS011;4931;44.874;-1.092;2023-04-24T03:27:38;13.88;;;6.90;;
9783;SDS011;4931;44.874;-1.092;2023-04-24T03:30:04;11.98;;;6.82;;
9783;SDS011;4931;44.874;-1.092;2023-04-24T03:32:31;12.25;;;6.82;;
9783;SDS011;4931;44.874;-1.092;2023-04-24T03:34:57;12.75;;;6.80;;
9783;SDS011;4931;44.874;-1.092;2023-04-24T03:37:23;17.58;;;6.47;;
9783;SDS011;4931;44.874;-1.092;2023-04-24T03:39:48;9.80;;;5.97;;
9783;SDS011;4931;44.874;-1.092;2023-04-24T03:42:14;14.38;;;7.88;;
9783;SDS011;4931;44.874;-1.092;2023-04-24T03:44:40;16.20;;;7.07;;
9783;SDS011;4931;44.874;-1.092;2023-04-24T03:47:05;18.08;;;8.90;;
9783;SDS011;4931;44.874;-1.092;2023-04-24T03:49:30;12.93;;;8.15;;
9783;SDS011;4931;44.874;-1.092;2023-04-24T03:51:56;15.80;;;8.73;;
9783;SDS011;4931;44.874;-1.092;2023-04-24T03:54:22;13.80;;;7.70;;
9783;SDS011;4931;44.874;-1.092;2023-04-24T03:56:47;13.50;;;7.30;;
9783;SDS011;4931;44.874;-1.092;2023-04-24T03:59:13;15.95;;;6.65;;
9783;SDS011;4931;44.874;-1.092;2023-04-24T04:01:38;13.77;;;7.35;;
9783;SDS011;4931;44.874;-1.092;2023-04-24T04:04:05;14.02;;;7.35;;
9783;SDS011;4931;44.874;-1.092;2023-04-24T04:06:33;14.52;;;7.95;;
9783;SDS011;4931;44.874;-1.092;2023-04-24T04:08:59;19.17;;;11.32;;
9783;SDS011;4931;44.874;-1.092;2023-04-24T04:11:25;21.83;;;11.73;;
9783;SDS011;4931;44.874;-1.092;2023-04-24T04:13:51;18.48;;;10.65;;
9783;SDS011;4931;44.874;-1.092;2023-04-24T04:16:17;17.77;;;10.77;;
9783;SDS011;4931;44.874;-1.092;2023-04-24T04:18:43;18.27;;;10.48;;
9783;SDS011;4931;44.874;-1.092;2023-04-24T04:21:08;15.90;;;9.18;;
9783;SDS011;4931;44.874;-1.092;2023-04-24T04:23:34;18.08;;;8.88;;
9783;SDS011;4931;44.874;-1.092;2023-04-24T04:26:00;14.25;;;8.02;;
9783;SDS011;4931;44.874;-1.092;2023-04-24T04:28:26;14.48;;;8.82;;
9783;SDS011;4931;44.874;-1.092;2023-04-24T04:30:51;15.63;;;8.95;;
9783;SDS011;4931;44.874;-1.092;2023-04-24T04:33:20;13.43;;;8.73;;
9783;SDS011;4931;44.874;-1.092;2023-04-24T04:35:46;16.40;;;7.68;;
9783;SDS011;4931;44.874;-1.092;2023-04-24T04:38:17;11.48;;;7.43;;
9783;SDS011;4931;44.874;-1.092;2023-04-24T04:40:43;15.05;;;8.35;;
9783;SDS011;4931;44.874;-1.092;2023-04-24T04:43:09;15.50;;;7.38;;
9783;SDS011;4931;44.874;-1.092;2023-04-24T04:45:36;14.73;;;7.65;;
9783;SDS011;4931;44.874;-1.092;2023-04-24T04:48:03;15.30;;;8.57;;
9783;SDS011;4931;44.874;-1.092;2023-04-24T04:50:29;15.57;;;7.80;;
9783;SDS011;4931;44.874;-1.092;2023-04-24T04:52:55;13.98;;;7.78;;
9783;SDS011;4931;44.874;-1.092;2023-04-24T04:55:20;13.85;;;8.38;;
9783;SDS011;4931;44.874;-1.092;2023-04-24T04:57:46;13.23;;;7.47;;
9783;SDS011;4931;44.874;-1.092;2023-04-24T05:00:11;14.20;;;7.72;;
9783;SDS011;4931;44.874;-1.092;2023-04-24T05:02:38;14.93;;;8.40;;
9783;SDS011;4931;44.874;-1.092;2023-04-24T05:05:04;15.68;;;8.30;;
9783;SDS011;4931;44.874;-1.092;2023-04-24T05:07:31;13.20;;;8.20;;
9783;SDS011;4931;44.874;-1.092;2023-04-24T05:09:56;12.05;;;8.32;;
9783;SDS011;4931;44.874;-1.092;2023-04-24T05:12:22;17.05;;;8.80;;
9783;SDS011;4931;44.874;-1.092;2023-04-24T05:14:47;14.27;;;8.63;;
9783;SDS011;4931;44.874;-1.092;2023-04-24T05:17:13;15.85;;;8.95;;
9783;SDS011;4931;44.874;-1.092;2023-04-24T05:19:39;13.68;;;8.45;;
9783;SDS011;4931;44.874;-1.092;2023-04-24T05:22:04;15.68;;;8.20;;
9783;SDS011;4931;44.874;-1.092;2023-04-24T05:24:34;14.95;;;8.45;;
9783;SDS011;4931;44.874;-1.092;2023-04-24T05:27:01;14.93;;;8.90;;
9783;SDS011;4931;44.874;-1.092;2023-04-24T05:29:28;13.40;;;8.50;;
9783;SDS011;4931;44.874;-1.092;2023-04-24T05:31:55;16.13;;;8.95;;
9783;SDS011;4931;44.874;-1.092;2023-04-24T05:34:21;16.33;;;10.48;;
9783;SDS011;4931;44.874;-1.092;2023-04-24T05:36:47;18.85;;;10.18;;
9783;SDS011;4931;44.874;-1.092;2023-04-24T05:39:13;18.92;;;9.48;;
9783;SDS011;4931;44.874;-1.092;2023-04-24T05:41:39;14.77;;;9.20;;
9783;SDS011;4931;44.874;-1.092;2023-04-24T05:44:04;19.15;;;10.63;;
9783;SDS011;4931;44.874;-1.092;2023-04-24T05:46:30;18.33;;;10.25;;
9783;SDS011;4931;44.874;-1.092;2023-04-24T05:48:56;16.17;;;9.75;;
9783;SDS011;4931;44.874;-1.092;2023-04-24T05:51:21;18.60;;;12.52;;
9783;SDS011;4931;44.874;-1.092;2023-04-24T05:53:47;19.45;;;10.90;;
9783;SDS011;4931;44.874;-1.092;2023-04-24T05:56:12;16.13;;;10.15;;
9783;SDS011;4931;44.874;-1.092;2023-04-24T05:58:38;17.58;;;10.65;;
9783;SDS011;4931;44.874;-1.092;2023-04-24T06:01:04;16.63;;;10.82;;
9783;SDS011;4931;44.874;-1.092;2023-04-24T06:03:30;16.52;;;10.38;;
9783;SDS011;4931;44.874;-1.092;2023-04-24T06:05:55;21.50;;;11.30;;
9783;SDS011;4931;44.874;-1.092;2023-04-24T06:08:21;16.55;;;9.82;;
9783;SDS011;4931;44.874;-1.092;2023-04-24T06:10:47;47.50;;;42.75;;
9783;SDS011;4931;44.874;-1.092;2023-04-24T06:13:12;24.35;;;16.00;;
9783;SDS011;4931;44.874;-1.092;2023-04-24T06:15:38;27.77;;;19.92;;
9783;SDS011;4931;44.874;-1.092;2023-04-24T06:18:03;19.55;;;11.15;;
9783;SDS011;4931;44.874;-1.092;2023-04-24T06:20:29;19.63;;;11.20;;
9783;SDS011;4931;44.874;-1.092;2023-04-24T06:22:54;22.77;;;10.65;;
9783;SDS011;4931;44.874;-1.092;2023-04-24T06:25:20;16.15;;;9.48;;
9783;SDS011;4931;44.874;-1.092;2023-04-24T06:27:46;18.92;;;10.25;;
9783;SDS011;4931;44.874;-1.092;2023-04-24T06:30:11;17.88;;;11.07;;
9783;SDS011;4931;44.874;-1.092;2023-04-24T06:32:37;20.48;;;12.15;;
9783;SDS011;4931;44.874;-1.092;2023-04-24T06:35:03;29.92;;;13.02;;
9783;SDS011;4931;44.874;-1.092;2023-04-24T06:37:29;25.98;;;13.65;;
9783;SDS011;4931;44.874;-1.092;2023-04-24T06:39:54;23.60;;;12.75;;
9783;SDS011;4931;44.874;-1.092;2023-04-24T06:42:20;21.02;;;11.75;;
9783;SDS011;4931;44.874;-1.092;2023-04-24T06:44:49;25.10;;;10.75;;
9783;SDS011;4931;44.874;-1.092;2023-04-24T06:47:15;26.27;;;12.95;;
9783;SDS011;4931;44.874;-1.092;2023-04-24T06:49:41;23.67;;;14.05;;
9783;SDS011;4931;44.874;-1.092;2023-04-24T06:52:06;29.20;;;15.93;;
9783;SDS011;4931;44.874;-1.092;2023-04-24T06:54:32;21.05;;;11.90;;
9783;SDS011;4931;44.874;-1.092;2023-04-24T06:56:58;20.58;;;10.82;;
9783;SDS011;4931;44.874;-1.092;2023-04-24T06:59:25;21.85;;;9.98;;
9783;SDS011;4931;44.874;-1.092;2023-04-24T07:01:52;19.48;;;8.65;;
9783;SDS011;4931;44.874;-1.092;2023-04-24T07:04:18;14.70;;;7.45;;
9783;SDS011;4931;44.874;-1.092;2023-04-24T07:06:44;19.58;;;7.80;;
9783;SDS011;4931;44.874;-1.092;2023-04-24T07:09:11;20.00;;;7.07;;
9783;SDS011;4931;44.874;-1.092;2023-04-24T07:11:36;20.05;;;7.57;;
9783;SDS011;4931;44.874;-1.092;2023-04-24T07:14:04;18.33;;;5.20;;
9783;SDS011;4931;44.874;-1.092;2023-04-24T07:16:30;19.25;;;6.28;;
9783;SDS011;4931;44.874;-1.092;2023-04-24T07:18:55;15.95;;;5.28;;
9783;SDS011;4931;44.874;-1.092;2023-04-24T07:21:21;19.52;;;6.68;;
9783;SDS011;4931;44.874;-1.092;2023-04-24T07:23:46;14.80;;;5.43;;
9783;SDS011;4931;44.874;-1.092;2023-04-24T07:26:12;18.60;;;5.25;;
9783;SDS011;4931;44.874;-1.092;2023-04-24T07:28:39;14.55;;;4.65;;
9783;SDS011;4931;44.874;-1.092;2023-04-24T07:31:05;15.65;;;4.90;;
9783;SDS011;4931;44.874;-1.092;2023-04-24T07:33:30;17.98;;;4.35;;
9783;SDS011;4931;44.874;-1.092;2023-04-24T07:35:56;17.00;;;4.65;;
9783;SDS011;4931;44.874;-1.092;2023-04-24T07:38:21;16.00;;;4.20;;
9783;SDS011;4931;44.874;-1.092;2023-04-24T07:40:47;14.45;;;4.30;;
9783;SDS011;4931;44.874;-1.092;2023-04-24T07:43:13;15.63;;;3.83;;
9783;SDS011;4931;44.874;-1.092;2023-04-24T07:45:39;12.77;;;4.80;;
9783;SDS011;4931;44.874;-1.092;2023-04-24T07:48:05;20.58;;;5.95;;
9783;SDS011;4931;44.874;-1.092;2023-04-24T07:50:31;13.25;;;4.00;;
9783;SDS011;4931;44.874;-1.092;2023-04-24T07:52:57;11.50;;;4.22;;
9783;SDS011;4931;44.874;-1.092;2023-04-24T07:55:22;14.50;;;5.38;;
9783;SDS011;4931;44.874;-1.092;2023-04-24T07:57:48;15.07;;;5.40;;
9783;SDS011;4931;44.874;-1.092;2023-04-24T08:00:14;13.52;;;4.30;;
9783;SDS011;4931;44.874;-1.092;2023-04-24T08:02:40;14.10;;;4.13;;
9783;SDS011;4931;44.874;-1.092;2023-04-24T08:05:06;8.60;;;3.80;;
9783;SDS011;4931;44.874;-1.092;2023-04-24T08:07:32;13.95;;;3.65;;
9783;SDS011;4931;44.874;-1.092;2023-04-24T08:09:57;15.52;;;3.88;;
9783;SDS011;4931;44.874;-1.092;2023-04-24T08:12:24;12.35;;;4.05;;
9783;SDS011;4931;44.874;-1.092;2023-04-24T08:14:50;14.50;;;4.00;;
9783;SDS011;4931;44.874;-1.092;2023-04-24T08:17:16;13.18;;;3.95;;
9783;SDS011;4931;44.874;-1.092;2023-04-24T08:19:42;17.52;;;5.13;;
9783;SDS011;4931;44.874;-1.092;2023-04-24T08:22:12;36.30;;;18.92;;
9783;SDS011;4931;44.874;-1.092;2023-04-24T08:24:38;12.38;;;4.25;;
9783;SDS011;4931;44.874;-1.092;2023-04-24T08:27:03;10.50;;;3.58;;
9783;SDS011;4931;44.874;-1.092;2023-04-24T08:29:29;15.48;;;5.03;;
9783;SDS011;4931;44.874;-1.092;2023-04-24T08:31:54;12.40;;;4.00;;
9783;SDS011;4931;44.874;-1.092;2023-04-24T08:34:20;13.35;;;4.03;;
9783;SDS011;4931;44.874;-1.092;2023-04-24T08:36:46;10.40;;;3.60;;
9783;SDS011;4931;44.874;-1.092;2023-04-24T08:39:12;17.80;;;4.28;;
9783;SDS011;4931;44.874;-1.092;2023-04-24T08:41:37;14.90;;;4.15;;
9783;SDS011;4931;44.874;-1.092;2023-04-24T08:44:07;14.02;;;4.32;;
9783;SDS011;4931;44.874;-1.092;2023-04-24T08:46:34;9.82;;;4.13;;
9783;SDS011;4931;44.874;-1.092;2023-04-24T08:49:01;14.05;;;3.53;;
9783;SDS011;4931;44.874;-1.092;2023-04-24T08:51:27;11.88;;;4.05;;
9783;SDS011;4931;44.874;-1.092;2023-04-24T08:53:55;9.95;;;3.80;;
9783;SDS011;4931;44.874;-1.092;2023-04-24T08:56:22;11.77;;;3.83;;
9783;SDS011;4931;44.874;-1.092;2023-04-24T08:58:49;9.15;;;3.83;;
9783;SDS011;4931;44.874;-1.092;2023-04-24T09:01:16;14.40;;;4.07;;
9783;SDS011;4931;44.874;-1.092;2023-04-24T09:03:44;12.23;;;3.78;;
9783;SDS011;4931;44.874;-1.092;2023-04-24T09:06:11;13.77;;;3.78;;
9783;SDS011;4931;44.874;-1.092;2023-04-24T09:08:37;19.02;;;4.18;;
9783;SDS011;4931;44.874;-1.092;2023-04-24T09:11:04;15.00;;;4.05;;
9783;SDS011;4931;44.874;-1.092;2023-04-24T09:13:30;13.93;;;4.40;;
9783;SDS011;4931;44.874;-1.092;2023-04-24T09:15:57;11.60;;;4.03;;
9783;SDS011;4931;44.874;-1.092;2023-04-24T09:18:22;12.18;;;3.72;;
9783;SDS011;4931;44.874;-1.092;2023-04-24T09:21:01;11.52;;;4.30;;
9783;SDS011;4931;44.874;-1.092;2023-04-24T09:23:29;16.88;;;4.30;;
9783;SDS011;4931;44.874;-1.092;2023-04-24T09:25:56;13.55;;;4.55;;
9783;SDS011;4931;44.874;-1.092;2023-04-24T09:28:40;11.05;;;4.55;;
9783;SDS011;4931;44.874;-1.092;2023-04-24T09:31:13;17.23;;;6.65;;
9783;SDS011;4931;44.874;-1.092;2023-04-24T09:34:04;12.50;;;4.53;;
9783;SDS011;4931;44.874;-1.092;2023-04-24T09:36:33;14.35;;;4.20;;
9783;SDS011;4931;44.874;-1.092;2023-04-24T09:39:02;13.95;;;4.90;;
9783;SDS011;4931;44.874;-1.092;2023-04-24T09:41:31;12.60;;;4.45;;
9783;SDS011;4931;44.874;-1.092;2023-04-24T09:43:58;14.18;;;3.92;;
9783;SDS011;4931;44.874;-1.092;2023-04-24T09:46:36;12.13;;;3.90;;
9783;SDS011;4931;44.874;-1.092;2023-04-24T09:49:08;15.65;;;4.40;;
9783;SDS011;4931;44.874;-1.092;2023-04-24T09:51:47;14.90;;;4.03;;
9783;SDS011;4931;44.874;-1.092;2023-04-24T09:54:16;10.77;;;4.15;;
9783;SDS011;4931;44.874;-1.092;2023-04-24T09:56:45;9.80;;;3.85;;
9783;SDS011;4931;44.874;-1.092;2023-04-24T09:59:13;14.60;;;3.78;;
9783;SDS011;4931;44.874;-1.092;2023-04-24T10:01:39;17.30;;;4.18;;
9783;SDS011;4931;44.874;-1.092;2023-04-24T10:06:46;12.70;;;3.53;;
9783;SDS011;4931;44.874;-1.092;2023-04-24T10:09:14;10.38;;;3.40;;
9783;SDS011;4931;44.874;-1.092;2023-04-24T10:11:44;14.93;;;3.47;;
9783;SDS011;4931;44.874;-1.092;2023-04-24T10:14:14;13.07;;;3.90;;
9783;SDS011;4931;44.874;-1.092;2023-04-24T10:16:42;12.65;;;3.53;;
9783;SDS011;4931;44.874;-1.092;2023-04-24T10:19:09;9.85;;;3.58;;
9783;SDS011;4931;44.874;-1.092;2023-04-24T10:21:36;10.15;;;4.28;;
9783;SDS011;4931;44.874;-1.092;2023-04-24T10:24:07;10.60;;;3.95;;
9783;SDS011;4931;44.874;-1.092;2023-04-24T10:26:34;10.35;;;3.80;;
9783;SDS011;4931;44.874;-1.092;2023-04-24T10:29:00;10.23;;;4.03;;
9783;SDS011;4931;44.874;-1.092;2023-04-24T10:34:02;9.63;;;3.40;;
9783;SDS011;4931;44.874;-1.092;2023-04-24T10:36:29;8.95;;;3.47;;
9783;SDS011;4931;44.874;-1.092;2023-04-24T10:38:57;8.65;;;4.00;;
9783;SDS011;4931;44.874;-1.092;2023-04-24T10:41:25;7.00;;;3.47;;
9783;SDS011;4931;44.874;-1.092;2023-04-24T10:46:38;13.10;;;3.80;;
9783;SDS011;4931;44.874;-1.092;2023-04-24T10:49:05;14.10;;;3.88;;
9783;SDS011;4931;44.874;-1.092;2023-04-24T10:51:53;12.05;;;4.03;;
9783;SDS011;4931;44.874;-1.092;2023-04-24T10:54:26;13.90;;;3.50;;
9783;SDS011;4931;44.874;-1.092;2023-04-24T10:56:53;11.50;;;3.58;;
9783;SDS011;4931;44.874;-1.092;2023-04-24T10:59:39;8.98;;;3.53;;
9783;SDS011;4931;44.874;-1.092;2023-04-24T11:02:04;15.23;;;4.20;;
9783;SDS011;4931;44.874;-1.092;2023-04-24T11:04:33;12.48;;;3.53;;
9783;SDS011;4931;44.874;-1.092;2023-04-24T11:07:00;14.15;;;3.95;;
9783;SDS011;4931;44.874;-1.092;2023-04-24T11:09:27;12.70;;;3.97;;
9783;SDS011;4931;44.874;-1.092;2023-04-24T11:12:05;18.05;;;4.22;;
9783;SDS011;4931;44.874;-1.092;2023-04-24T11:17:37;12.45;;;4.07;;
9783;SDS011;4931;44.874;-1.092;2023-04-24T11:20:09;8.30;;;3.60;;
9783;SDS011;4931;44.874;-1.092;2023-04-24T11:22:38;16.73;;;4.15;;
9783;SDS011;4931;44.874;-1.092;2023-04-24T11:25:05;15.02;;;3.95;;
9783;SDS011;4931;44.874;-1.092;2023-04-24T11:27:32;14.70;;;4.00;;
9783;SDS011;4931;44.874;-1.092;2023-04-24T11:30:04;28.13;;;13.32;;
9783;SDS011;4931;44.874;-1.092;2023-04-24T11:32:35;9.75;;;3.55;;
9783;SDS011;4931;44.874;-1.092;2023-04-24T11:35:06;11.18;;;3.60;;
9783;SDS011;4931;44.874;-1.092;2023-04-24T11:37:35;9.85;;;2.80;;
9783;SDS011;4931;44.874;-1.092;2023-04-24T11:40:03;9.38;;;3.10;;
9783;SDS011;4931;44.874;-1.092;2023-04-24T11:42:35;10.60;;;3.30;;
9783;SDS011;4931;44.874;-1.092;2023-04-24T11:45:02;12.70;;;3.58;;
9783;SDS011;4931;44.874;-1.092;2023-04-24T11:47:33;8.80;;;3.53;;
9783;SDS011;4931;44.874;-1.092;2023-04-24T11:49:59;9.48;;;3.95;;
9783;SDS011;4931;44.874;-1.092;2023-04-24T11:52:28;9.70;;;3.65;;
9783;SDS011;4931;44.874;-1.092;2023-04-24T11:54:55;12.35;;;3.75;;
9783;SDS011;4931;44.874;-1.092;2023-04-24T11:57:21;10.13;;;3.35;;
9783;SDS011;4931;44.874;-1.092;2023-04-24T11:59:47;8.27;;;3.13;;
9783;SDS011;4931;44.874;-1.092;2023-04-24T12:02:20;8.93;;;3.30;;
9783;SDS011;4931;44.874;-1.092;2023-04-24T12:04:49;8.50;;;3.00;;
9783;SDS011;4931;44.874;-1.092;2023-04-24T12:07:15;6.30;;;2.95;;
9783;SDS011;4931;44.874;-1.092;2023-04-24T12:09:41;6.72;;;2.65;;
9783;SDS011;4931;44.874;-1.092;2023-04-24T12:12:08;8.80;;;3.20;;
9783;SDS011;4931;44.874;-1.092;2023-04-24T12:14:41;7.13;;;2.80;;
9783;SDS011;4931;44.874;-1.092;2023-04-24T12:20:49;8.35;;;3.42;;
9783;SDS011;4931;44.874;-1.092;2023-04-24T12:23:14;4.90;;;2.47;;
9783;SDS011;4931;44.874;-1.092;2023-04-24T12:25:40;7.35;;;2.65;;
9783;SDS011;4931;44.874;-1.092;2023-04-24T12:30:39;7.75;;;3.15;;
9783;SDS011;4931;44.874;-1.092;2023-04-24T12:33:11;6.38;;;3.03;;
9783;SDS011;4931;44.874;-1.092;2023-04-24T12:35:36;8.45;;;3.17;;
9783;SDS011;4931;44.874;-1.092;2023-04-24T12:38:15;9.55;;;3.40;;
9783;SDS011;4931;44.874;-1.092;2023-04-24T12:40:41;8.02;;;3.30;;
9783;SDS011;4931;44.874;-1.092;2023-04-24T12:43:19;8.15;;;3.10;;
9783;SDS011;4931;44.874;-1.092;2023-04-24T12:45:45;8.98;;;3.20;;
9783;SDS011;4931;44.874;-1.092;2023-04-24T12:48:12;9.48;;;3.08;;
9783;SDS011;4931;44.874;-1.092;2023-04-24T12:50:41;10.93;;;3.15;;
9783;SDS011;4931;44.874;-1.092;2023-04-24T12:53:07;7.45;;;2.92;;
9783;SDS011;4931;44.874;-1.092;2023-04-24T12:55:33;9.70;;;2.97;;
9783;SDS011;4931;44.874;-1.092;2023-04-24T12:57:59;7.82;;;2.40;;
9783;SDS011;4931;44.874;-1.092;2023-04-24T13:00:25;7.75;;;2.67;;
9783;SDS011;4931;44.874;-1.092;2023-04-24T13:02:51;6.10;;;2.20;;
9783;SDS011;4931;44.874;-1.092;2023-04-24T13:05:16;7.20;;;2.45;;
9783;SDS011;4931;44.874;-1.092;2023-04-24T13:07:42;5.95;;;1.98;;
9783;SDS011;4931;44.874;-1.092;2023-04-24T13:10:07;4.35;;;1.60;;
9783;SDS011;4931;44.874;-1.092;2023-04-24T13:12:34;6.40;;;2.40;;
9783;SDS011;4931;44.874;-1.092;2023-04-24T13:14:59;5.35;;;2.28;;
9783;SDS011;4931;44.874;-1.092;2023-04-24T13:17:25;4.18;;;2.00;;
9783;SDS011;4931;44.874;-1.092;2023-04-24T13:19:51;6.47;;;2.30;;
9783;SDS011;4931;44.874;-1.092;2023-04-24T13:22:17;8.80;;;2.70;;
9783;SDS011;4931;44.874;-1.092;2023-04-24T13:24:46;5.35;;;1.88;;
9783;SDS011;4931;44.874;-1.092;2023-04-24T13:27:14;4.75;;;1.60;;
9783;SDS011;4931;44.874;-1.092;2023-04-24T13:29:40;4.95;;;2.13;;
9783;SDS011;4931;44.874;-1.092;2023-04-24T13:32:05;4.30;;;1.90;;
9783;SDS011;4931;44.874;-1.092;2023-04-24T13:34:31;4.72;;;2.05;;
9783;SDS011;4931;44.874;-1.092;2023-04-24T13:36:57;5.93;;;2.03;;
9783;SDS011;4931;44.874;-1.092;2023-04-24T13:39:24;6.35;;;1.65;;
9783;SDS011;4931;44.874;-1.092;2023-04-24T13:41:50;5.35;;;1.75;;
9783;SDS011;4931;44.874;-1.092;2023-04-24T13:44:16;4.00;;;1.70;;
9783;SDS011;4931;44.874;-1.092;2023-04-24T13:46:43;3.80;;;1.60;;
9783;SDS011;4931;44.874;-1.092;2023-04-24T13:49:10;4.28;;;1.83;;
9783;SDS011;4931;44.874;-1.092;2023-04-24T13:51:36;2.80;;;1.60;;
9783;SDS011;4931;44.874;-1.092;2023-04-24T13:54:02;3.42;;;1.50;;
9783;SDS011;4931;44.874;-1.092;2023-04-24T13:56:28;4.03;;;1.50;;
9783;SDS011;4931;44.874;-1.092;2023-04-24T13:58:53;2.90;;;1.30;;
9783;SDS011;4931;44.874;-1.092;2023-04-24T14:01:19;5.30;;;1.80;;
9783;SDS011;4931;44.874;-1.092;2023-04-24T14:03:46;4.25;;;1.80;;
9783;SDS011;4931;44.874;-1.092;2023-04-24T14:06:11;3.65;;;1.65;;
9783;SDS011;4931;44.874;-1.092;2023-04-24T14:08:37;3.63;;;1.77;;
9783;SDS011;4931;44.874;-1.092;2023-04-24T14:11:02;2.72;;;1.70;;
9783;SDS011;4931;44.874;-1.092;2023-04-24T14:13:28;6.30;;;2.00;;
9783;SDS011;4931;44.874;-1.092;2023-04-24T14:15:54;4.13;;;1.70;;
9783;SDS011;4931;44.874;-1.092;2023-04-24T14:18:20;2.60;;;1.60;;
9783;SDS011;4931;44.874;-1.092;2023-04-24T14:20:45;4.00;;;1.30;;
9783;SDS011;4931;44.874;-1.092;2023-04-24T14:23:11;4.90;;;1.38;;
9783;SDS011;4931;44.874;-1.092;2023-04-24T14:25:36;3.67;;;1.38;;
9783;SDS011;4931;44.874;-1.092;2023-04-24T14:28:02;4.05;;;1.70;;
9783;SDS011;4931;44.874;-1.092;2023-04-24T14:30:28;4.50;;;1.73;;
9783;SDS011;4931;44.874;-1.092;2023-04-24T14:32:53;6.13;;;1.70;;
9783;SDS011;4931;44.874;-1.092;2023-04-24T14:35:19;5.28;;;1.70;;
9783;SDS011;4931;44.874;-1.092;2023-04-24T14:37:44;3.97;;;1.50;;
9783;SDS011;4931;44.874;-1.092;2023-04-24T14:40:10;4.88;;;2.05;;
9783;SDS011;4931;44.874;-1.092;2023-04-24T14:42:36;5.25;;;1.30;;
9783;SDS011;4931;44.874;-1.092;2023-04-24T14:45:01;4.30;;;1.55;;
9783;SDS011;4931;44.874;-1.092;2023-04-24T14:47:27;3.50;;;1.20;;
9783;SDS011;4931;44.874;-1.092;2023-04-24T14:49:54;5.18;;;1.23;;
9783;SDS011;4931;44.874;-1.092;2023-04-24T14:52:19;5.60;;;1.50;;
9783;SDS011;4931;44.874;-1.092;2023-04-24T14:54:45;4.75;;;1.25;;
9783;SDS011;4931;44.874;-1.092;2023-04-24T14:57:10;5.45;;;1.73;;
9783;SDS011;4931;44.874;-1.092;2023-04-24T14:59:36;3.90;;;1.60;;
9783;SDS011;4931;44.874;-1.092;2023-04-24T15:02:01;4.60;;;1.70;;
9783;SDS011;4931;44.874;-1.092;2023-04-24T15:04:27;5.03;;;1.42;;